DWI2101 KMIA-MDSD
Flight info
| Callsign | DWI2101 |
|---|---|
| Flight time | 1h 42m |
| Altitude | 35000 |
| Route | KLADA2 JAGOR DCT RUMFO Y441 JUELE UW38 PTA DCT KODIX KODIX2G |
| Aircraft | B38M/M-L/C |
Departure
| Time | 2026-05-08 21:35 |
|---|---|
| Airport | Miami International Airport (KMIA) |
Arrival
| Time | 2026-05-08 23:17 |
|---|---|
| Airport | Las Américas International Airport (MDSD) |
| Time | Latitude | Longitude | Altitude | Speed | Heading |
|---|---|---|---|---|---|
| 2026-05-08 21:18 | 25.79451 | -80.28333 | 17 ft | 0 kts | 288° |
| 2026-05-08 21:24 | 25.79451 | -80.28332 | 17 ft | 1 kts | 288° |
| 2026-05-08 21:25 | 25.79444 | -80.28306 | 20 ft | 4 kts | 285° |
| 2026-05-08 21:25 | 25.79435 | -80.28279 | 20 ft | 4 kts | 303° |
| 2026-05-08 21:25 | 25.79420 | -80.28267 | 19 ft | 2 kts | 359° |
| 2026-05-08 21:25 | 25.79395 | -80.28265 | 19 ft | 4 kts | 340° |
| 2026-05-08 21:26 | 25.79372 | -80.28251 | 18 ft | 4 kts | 315° |
| 2026-05-08 21:26 | 25.79363 | -80.28228 | 22 ft | 4 kts | 264° |
| 2026-05-08 21:26 | 25.79369 | -80.28204 | 19 ft | 2 kts | 247° |
| 2026-05-08 21:26 | 25.79363 | -80.28220 | 21 ft | 4 kts | 248° |
| 2026-05-08 21:27 | 25.79353 | -80.28249 | 19 ft | 4 kts | 249° |
| 2026-05-08 21:27 | 25.79345 | -80.28271 | 17 ft | 3 kts | 249° |
| 2026-05-08 21:27 | 25.79338 | -80.28299 | 17 ft | 4 kts | 258° |
| 2026-05-08 21:27 | 25.79334 | -80.28329 | 17 ft | 4 kts | 263° |
| 2026-05-08 21:28 | 25.79333 | -80.28352 | 17 ft | 3 kts | 265° |
| 2026-05-08 21:28 | 25.79331 | -80.28382 | 17 ft | 4 kts | 265° |
| 2026-05-08 21:28 | 25.79330 | -80.28400 | 17 ft | 1 kts | 265° |
| 2026-05-08 21:31 | 25.79330 | -80.28401 | 17 ft | 1 kts | 265° |
| 2026-05-08 21:31 | 25.79326 | -80.28450 | 17 ft | 12 kts | 265° |
| 2026-05-08 21:31 | 25.79319 | -80.28583 | 17 ft | 21 kts | 281° |
| 2026-05-08 21:32 | 25.79380 | -80.28726 | 17 ft | 21 kts | 299° |
| 2026-05-08 21:32 | 25.79454 | -80.28870 | 17 ft | 22 kts | 300° |
| 2026-05-08 21:32 | 25.79532 | -80.29021 | 17 ft | 23 kts | 300° |
| 2026-05-08 21:32 | 25.79614 | -80.29180 | 17 ft | 24 kts | 299° |
| 2026-05-08 21:33 | 25.79698 | -80.29347 | 17 ft | 25 kts | 299° |
| 2026-05-08 21:33 | 25.79787 | -80.29520 | 17 ft | 26 kts | 300° |
| 2026-05-08 21:33 | 25.79877 | -80.29695 | 17 ft | 24 kts | 295° |
| 2026-05-08 21:33 | 25.79942 | -80.29854 | 16 ft | 21 kts | 294° |
| 2026-05-08 21:34 | 25.79989 | -80.30014 | 16 ft | 22 kts | 286° |
| 2026-05-08 21:34 | 25.80036 | -80.30132 | 17 ft | 9 kts | 331° |
| 2026-05-08 21:34 | 25.80070 | -80.30123 | 17 ft | 5 kts | 58° |
| 2026-05-08 21:34 | 25.80075 | -80.30050 | 16 ft | 20 kts | 88° |
| 2026-05-08 21:35 | 25.80092 | -80.29609 | 16 ft | 95 kts | 87° |
| 2026-05-08 21:35 | 25.80134 | -80.28622 | 20 ft | 158 kts | 88° |
| 2026-05-08 21:35 | 25.80184 | -80.27283 | 438 ft | 181 kts | 87° |
| 2026-05-08 21:35 | 25.80166 | -80.25802 | 1119 ft | 195 kts | 103° |
| 2026-05-08 21:36 | 25.79644 | -80.24460 | 2012 ft | 194 kts | 115° |
| 2026-05-08 21:36 | 25.79030 | -80.23040 | 2392 ft | 220 kts | 115° |
| 2026-05-08 21:36 | 25.78309 | -80.21397 | 2813 ft | 244 kts | 116° |
| 2026-05-08 21:36 | 25.77545 | -80.19684 | 3680 ft | 255 kts | 116° |
| 2026-05-08 21:37 | 25.76708 | -80.17869 | 4373 ft | 273 kts | 118° |
| 2026-05-08 21:37 | 25.75794 | -80.16009 | 5204 ft | 278 kts | 118° |
| 2026-05-08 21:37 | 25.74865 | -80.14117 | 6213 ft | 280 kts | 119° |
| 2026-05-08 21:37 | 25.73925 | -80.12205 | 7142 ft | 281 kts | 120° |
| 2026-05-08 21:38 | 25.73087 | -80.10230 | 8027 ft | 284 kts | 111° |
| 2026-05-08 21:38 | 25.72444 | -80.08141 | 8885 ft | 288 kts | 111° |
| 2026-05-08 21:38 | 25.71778 | -80.06057 | 9710 ft | 292 kts | 112° |
| 2026-05-08 21:38 | 25.71083 | -80.03922 | 10401 ft | 300 kts | 112° |
| 2026-05-08 21:39 | 25.70344 | -80.01680 | 10763 ft | 318 kts | 112° |
| 2026-05-08 21:39 | 25.69562 | -79.99324 | 11212 ft | 332 kts | 112° |
| 2026-05-08 21:39 | 25.68752 | -79.96895 | 11849 ft | 337 kts | 112° |
| 2026-05-08 21:39 | 25.67932 | -79.94441 | 12510 ft | 343 kts | 111° |
| 2026-05-08 21:40 | 25.67096 | -79.91945 | 13156 ft | 347 kts | 111° |
| 2026-05-08 21:40 | 25.66248 | -79.89411 | 13800 ft | 352 kts | 111° |
| 2026-05-08 21:40 | 25.65390 | -79.86852 | 14374 ft | 356 kts | 111° |
| 2026-05-08 21:41 | 25.63652 | -79.81677 | 15507 ft | 364 kts | 111° |
| 2026-05-08 21:41 | 25.62763 | -79.79032 | 16069 ft | 368 kts | 111° |
| 2026-05-08 21:41 | 25.61862 | -79.76351 | 16609 ft | 372 kts | 111° |
| 2026-05-08 21:41 | 25.60950 | -79.73640 | 17148 ft | 376 kts | 111° |
| 2026-05-08 21:42 | 25.60041 | -79.70941 | 17670 ft | 380 kts | 112° |
| 2026-05-08 21:42 | 25.58913 | -79.68286 | 18182 ft | 383 kts | 118° |
| 2026-05-08 21:42 | 25.57701 | -79.65626 | 18634 ft | 387 kts | 117° |
| 2026-05-08 21:42 | 25.56497 | -79.62943 | 19071 ft | 391 kts | 117° |
| 2026-05-08 21:43 | 25.55288 | -79.60227 | 19506 ft | 394 kts | 117° |
| 2026-05-08 21:43 | 25.54084 | -79.57510 | 19925 ft | 398 kts | 117° |
| 2026-05-08 21:43 | 25.52858 | -79.54744 | 20354 ft | 402 kts | 117° |
| 2026-05-08 21:43 | 25.51620 | -79.51949 | 20777 ft | 405 kts | 117° |
| 2026-05-08 21:44 | 25.50370 | -79.49127 | 21188 ft | 409 kts | 117° |
| 2026-05-08 21:44 | 25.49109 | -79.46283 | 21606 ft | 413 kts | 118° |
| 2026-05-08 21:44 | 25.47838 | -79.43423 | 22019 ft | 416 kts | 117° |
| 2026-05-08 21:44 | 25.46556 | -79.40534 | 22426 ft | 420 kts | 118° |
| 2026-05-08 21:45 | 25.45264 | -79.37623 | 22832 ft | 423 kts | 118° |
| 2026-05-08 21:45 | 25.43977 | -79.34728 | 23220 ft | 426 kts | 118° |
| 2026-05-08 21:45 | 25.42657 | -79.31761 | 23597 ft | 430 kts | 118° |
| 2026-05-08 21:45 | 25.41331 | -79.28783 | 23932 ft | 433 kts | 118° |
| 2026-05-08 21:46 | 25.39997 | -79.25787 | 24277 ft | 435 kts | 118° |
| 2026-05-08 21:46 | 25.38654 | -79.22776 | 24621 ft | 437 kts | 118° |
| 2026-05-08 21:46 | 25.37303 | -79.19747 | 24956 ft | 440 kts | 118° |
| 2026-05-08 21:46 | 25.35945 | -79.16704 | 25293 ft | 442 kts | 118° |
| 2026-05-08 21:47 | 25.34577 | -79.13641 | 25623 ft | 445 kts | 118° |
| 2026-05-08 21:47 | 25.33201 | -79.10565 | 25944 ft | 447 kts | 118° |
| 2026-05-08 21:47 | 25.31837 | -79.07514 | 26261 ft | 450 kts | 118° |
| 2026-05-08 21:47 | 25.30443 | -79.04399 | 26581 ft | 452 kts | 118° |
| 2026-05-08 21:48 | 25.29044 | -79.01276 | 26888 ft | 454 kts | 118° |
| 2026-05-08 21:48 | 25.27635 | -78.98133 | 27197 ft | 456 kts | 118° |
| 2026-05-08 21:48 | 25.26701 | -78.96051 | 27397 ft | 458 kts | 118° |
| 2026-05-08 21:48 | 25.25281 | -78.92887 | 27695 ft | 460 kts | 118° |
| 2026-05-08 21:49 | 25.23855 | -78.89710 | 27984 ft | 462 kts | 118° |
| 2026-05-08 21:49 | 25.22421 | -78.86520 | 28274 ft | 464 kts | 118° |
| 2026-05-08 21:49 | 25.20977 | -78.83308 | 28559 ft | 467 kts | 118° |
| 2026-05-08 21:49 | 25.19546 | -78.80130 | 28840 ft | 469 kts | 118° |
| 2026-05-08 21:50 | 25.18091 | -78.76899 | 29112 ft | 471 kts | 118° |
| 2026-05-08 21:50 | 25.16628 | -78.73652 | 29383 ft | 473 kts | 117° |
| 2026-05-08 21:50 | 25.15155 | -78.70386 | 29655 ft | 475 kts | 117° |
| 2026-05-08 21:50 | 25.13679 | -78.67114 | 29909 ft | 477 kts | 118° |
| 2026-05-08 21:51 | 25.12194 | -78.63825 | 30146 ft | 479 kts | 117° |
| 2026-05-08 21:51 | 25.10691 | -78.60519 | 30379 ft | 481 kts | 120° |
| 2026-05-08 21:51 | 25.09107 | -78.57315 | 30590 ft | 482 kts | 120° |
| 2026-05-08 21:51 | 25.07495 | -78.54060 | 30812 ft | 484 kts | 120° |
| 2026-05-08 21:52 | 25.05879 | -78.50780 | 31030 ft | 486 kts | 120° |
| 2026-05-08 21:52 | 25.04263 | -78.47498 | 31252 ft | 487 kts | 120° |
| 2026-05-08 21:52 | 25.02641 | -78.44205 | 31456 ft | 489 kts | 120° |
| 2026-05-08 21:52 | 25.01014 | -78.40902 | 31671 ft | 490 kts | 120° |
| 2026-05-08 21:53 | 24.99378 | -78.37585 | 31883 ft | 492 kts | 120° |
| 2026-05-08 21:53 | 24.97758 | -78.34302 | 32092 ft | 494 kts | 120° |
| 2026-05-08 21:53 | 24.96111 | -78.30968 | 32296 ft | 495 kts | 120° |
| 2026-05-08 21:53 | 24.94459 | -78.27625 | 32484 ft | 497 kts | 120° |
| 2026-05-08 21:54 | 24.92798 | -78.24266 | 32696 ft | 498 kts | 120° |
| 2026-05-08 21:54 | 24.91151 | -78.20939 | 32898 ft | 500 kts | 120° |
| 2026-05-08 21:54 | 24.89482 | -78.17568 | 33086 ft | 502 kts | 120° |
| 2026-05-08 21:54 | 24.87802 | -78.14179 | 33286 ft | 503 kts | 120° |
| 2026-05-08 21:55 | 24.86125 | -78.10799 | 33547 ft | 503 kts | 120° |
| 2026-05-08 21:55 | 24.84441 | -78.07406 | 33813 ft | 502 kts | 120° |
| 2026-05-08 21:55 | 24.82787 | -78.04076 | 34069 ft | 502 kts | 120° |
| 2026-05-08 21:56 | 24.79434 | -77.97332 | 34537 ft | 501 kts | 120° |
| 2026-05-08 21:56 | 24.77764 | -77.93977 | 34789 ft | 499 kts | 120° |
| 2026-05-08 21:56 | 24.76096 | -77.90628 | 34986 ft | 499 kts | 120° |
| 2026-05-08 21:57 | 24.72756 | -77.83931 | 35009 ft | 497 kts | 120° |
| 2026-05-08 21:57 | 24.69430 | -77.77270 | 35008 ft | 496 kts | 120° |
| 2026-05-08 21:58 | 24.65885 | -77.70825 | 35015 ft | 495 kts | 124° |
| 2026-05-08 21:58 | 24.62114 | -77.64459 | 35007 ft | 495 kts | 124° |
| 2026-05-08 21:59 | 24.58378 | -77.58085 | 35005 ft | 495 kts | 124° |
| 2026-05-08 21:59 | 24.54663 | -77.51750 | 35000 ft | 495 kts | 124° |
| 2026-05-08 22:00 | 24.50927 | -77.45387 | 34997 ft | 495 kts | 124° |
| 2026-05-08 22:00 | 24.47217 | -77.39076 | 34998 ft | 494 kts | 124° |
| 2026-05-08 22:01 | 24.43476 | -77.32722 | 34999 ft | 494 kts | 124° |
| 2026-05-08 22:01 | 24.39761 | -77.26420 | 34999 ft | 494 kts | 124° |
| 2026-05-08 22:02 | 24.36025 | -77.20089 | 34999 ft | 493 kts | 124° |
| 2026-05-08 22:02 | 24.32289 | -77.13768 | 35000 ft | 493 kts | 124° |
| 2026-05-08 22:03 | 24.28578 | -77.07496 | 35003 ft | 493 kts | 124° |
| 2026-05-08 22:03 | 24.24837 | -77.01181 | 35001 ft | 492 kts | 123° |
| 2026-05-08 22:04 | 24.21107 | -76.94894 | 35001 ft | 491 kts | 123° |
| 2026-05-08 22:04 | 24.17394 | -76.88644 | 35004 ft | 491 kts | 123° |
| 2026-05-08 22:05 | 24.13659 | -76.82364 | 35005 ft | 491 kts | 123° |
| 2026-05-08 22:05 | 24.09951 | -76.76137 | 35003 ft | 490 kts | 123° |
| 2026-05-08 22:06 | 24.06215 | -76.69870 | 35006 ft | 490 kts | 123° |
| 2026-05-08 22:06 | 24.02514 | -76.63672 | 35005 ft | 489 kts | 123° |
| 2026-05-08 22:07 | 23.98787 | -76.57437 | 35003 ft | 488 kts | 123° |
| 2026-05-08 22:07 | 23.95071 | -76.51227 | 35009 ft | 488 kts | 123° |
| 2026-05-08 22:08 | 23.91347 | -76.45014 | 35006 ft | 488 kts | 123° |
| 2026-05-08 22:08 | 23.87646 | -76.38845 | 35006 ft | 487 kts | 123° |
| 2026-05-08 22:09 | 23.83930 | -76.32660 | 35004 ft | 487 kts | 123° |
| 2026-05-08 22:09 | 23.80207 | -76.26469 | 35005 ft | 486 kts | 123° |
| 2026-05-08 22:10 | 23.76483 | -76.20287 | 35005 ft | 486 kts | 123° |
| 2026-05-08 22:10 | 23.72786 | -76.14156 | 35003 ft | 486 kts | 123° |
| 2026-05-08 22:11 | 23.69065 | -76.07992 | 35003 ft | 485 kts | 123° |
| 2026-05-08 22:11 | 23.65347 | -76.01841 | 35003 ft | 485 kts | 123° |
| 2026-05-08 22:12 | 23.61623 | -75.95688 | 35004 ft | 485 kts | 123° |
| 2026-05-08 22:12 | 23.57927 | -75.89587 | 35003 ft | 484 kts | 123° |
| 2026-05-08 22:13 | 23.54208 | -75.83457 | 35003 ft | 484 kts | 123° |
| 2026-05-08 22:13 | 23.50483 | -75.77325 | 35001 ft | 483 kts | 123° |
| 2026-05-08 22:14 | 23.46792 | -75.71255 | 35004 ft | 483 kts | 123° |
| 2026-05-08 22:14 | 23.43073 | -75.65147 | 35006 ft | 483 kts | 123° |
| 2026-05-08 22:15 | 23.39356 | -75.59049 | 35005 ft | 483 kts | 123° |
| 2026-05-08 22:15 | 23.35637 | -75.52956 | 35004 ft | 482 kts | 123° |
| 2026-05-08 22:16 | 23.31941 | -75.46907 | 35006 ft | 482 kts | 123° |
| 2026-05-08 22:16 | 23.28218 | -75.40821 | 35010 ft | 482 kts | 123° |
| 2026-05-08 22:17 | 23.24528 | -75.34796 | 35010 ft | 482 kts | 123° |
| 2026-05-08 22:17 | 23.20809 | -75.28729 | 35009 ft | 481 kts | 123° |
| 2026-05-08 22:18 | 23.17092 | -75.22674 | 35012 ft | 481 kts | 123° |
| 2026-05-08 22:18 | 23.13379 | -75.16631 | 35011 ft | 481 kts | 123° |
| 2026-05-08 22:19 | 23.09680 | -75.10619 | 35007 ft | 480 kts | 124° |
| 2026-05-08 22:19 | 23.05822 | -75.04677 | 35013 ft | 480 kts | 125° |
| 2026-05-08 22:20 | 23.01987 | -74.98767 | 35007 ft | 480 kts | 124° |
| 2026-05-08 22:20 | 22.98138 | -74.92836 | 35013 ft | 480 kts | 124° |
| 2026-05-08 22:21 | 22.94289 | -74.86911 | 35010 ft | 480 kts | 124° |
| 2026-05-08 22:21 | 22.90433 | -74.80984 | 35011 ft | 479 kts | 124° |
| 2026-05-08 22:22 | 22.86608 | -74.75111 | 35011 ft | 479 kts | 124° |
| 2026-05-08 22:22 | 22.82754 | -74.69198 | 35011 ft | 479 kts | 124° |
| 2026-05-08 22:23 | 22.78901 | -74.63295 | 35012 ft | 479 kts | 124° |
| 2026-05-08 22:23 | 22.75072 | -74.57435 | 35011 ft | 479 kts | 124° |
| 2026-05-08 22:24 | 22.71215 | -74.51539 | 35006 ft | 479 kts | 124° |
| 2026-05-08 22:24 | 22.67357 | -74.45648 | 35008 ft | 478 kts | 124° |
| 2026-05-08 22:25 | 22.63516 | -74.39789 | 35006 ft | 483 kts | 124° |
| 2026-05-08 22:25 | 22.59587 | -74.33803 | 35005 ft | 489 kts | 124° |
| 2026-05-08 22:26 | 22.55646 | -74.27806 | 35006 ft | 488 kts | 124° |
| 2026-05-08 22:26 | 22.51723 | -74.21843 | 35012 ft | 488 kts | 124° |
| 2026-05-08 22:27 | 22.47780 | -74.15855 | 35009 ft | 488 kts | 124° |
| 2026-05-08 22:27 | 22.43835 | -74.09872 | 35009 ft | 488 kts | 124° |
| 2026-05-08 22:28 | 22.39911 | -74.03928 | 34999 ft | 487 kts | 124° |
| 2026-05-08 22:28 | 22.35969 | -73.97961 | 35006 ft | 487 kts | 124° |
| 2026-05-08 22:29 | 22.32026 | -73.92001 | 35003 ft | 487 kts | 124° |
| 2026-05-08 22:29 | 22.28107 | -73.86084 | 35008 ft | 487 kts | 124° |
| 2026-05-08 22:30 | 22.24166 | -73.80141 | 35004 ft | 486 kts | 124° |
| 2026-05-08 22:30 | 22.20224 | -73.74201 | 35005 ft | 487 kts | 124° |
| 2026-05-08 22:31 | 22.16270 | -73.68251 | 35007 ft | 486 kts | 124° |
| 2026-05-08 22:31 | 22.12342 | -73.62347 | 35006 ft | 486 kts | 124° |
| 2026-05-08 22:32 | 22.08395 | -73.56420 | 35007 ft | 486 kts | 124° |
| 2026-05-08 22:32 | 22.04448 | -73.50499 | 35007 ft | 486 kts | 124° |
| 2026-05-08 22:33 | 22.00497 | -73.44580 | 35006 ft | 486 kts | 124° |
| 2026-05-08 22:33 | 21.96569 | -73.38701 | 35008 ft | 486 kts | 124° |
| 2026-05-08 22:34 | 21.92609 | -73.32781 | 35005 ft | 486 kts | 124° |
| 2026-05-08 22:34 | 21.88650 | -73.26868 | 35001 ft | 486 kts | 124° |
| 2026-05-08 22:35 | 21.84686 | -73.20955 | 35003 ft | 486 kts | 124° |
| 2026-05-08 22:35 | 21.80750 | -73.15089 | 35004 ft | 486 kts | 124° |
| 2026-05-08 22:36 | 21.76779 | -73.09179 | 34998 ft | 486 kts | 124° |
| 2026-05-08 22:36 | 21.73476 | -73.04268 | 35000 ft | 486 kts | 124° |
| 2026-05-08 22:37 | 21.68862 | -72.97414 | 35004 ft | 486 kts | 124° |
| 2026-05-08 22:37 | 21.65539 | -72.92482 | 35001 ft | 486 kts | 124° |
| 2026-05-08 22:38 | 21.61589 | -72.86627 | 34998 ft | 486 kts | 124° |
| 2026-05-08 22:38 | 21.57601 | -72.80722 | 35003 ft | 486 kts | 124° |
| 2026-05-08 22:39 | 21.53652 | -72.74879 | 35003 ft | 486 kts | 124° |
| 2026-05-08 22:39 | 21.49668 | -72.68993 | 35002 ft | 486 kts | 124° |
| 2026-05-08 22:40 | 21.45688 | -72.63117 | 35003 ft | 486 kts | 124° |
| 2026-05-08 22:40 | 21.41704 | -72.57244 | 34997 ft | 486 kts | 124° |
| 2026-05-08 22:41 | 21.37746 | -72.51413 | 35001 ft | 486 kts | 124° |
| 2026-05-08 22:41 | 21.33762 | -72.45552 | 34998 ft | 486 kts | 124° |
| 2026-05-08 22:42 | 21.29772 | -72.39686 | 34998 ft | 486 kts | 124° |
| 2026-05-08 22:42 | 21.25805 | -72.33861 | 34999 ft | 486 kts | 124° |
| 2026-05-08 22:43 | 21.21806 | -72.27995 | 34995 ft | 486 kts | 124° |
| 2026-05-08 22:43 | 21.17819 | -72.22154 | 34999 ft | 486 kts | 124° |
| 2026-05-08 22:44 | 21.13827 | -72.16311 | 34997 ft | 485 kts | 124° |
| 2026-05-08 22:44 | 21.09858 | -72.10506 | 34999 ft | 485 kts | 124° |
| 2026-05-08 22:45 | 21.05862 | -72.04670 | 34997 ft | 485 kts | 124° |
| 2026-05-08 22:45 | 21.01860 | -71.98830 | 35000 ft | 485 kts | 124° |
| 2026-05-08 22:46 | 20.97863 | -71.93003 | 34996 ft | 485 kts | 124° |
| 2026-05-08 22:46 | 20.93889 | -71.87216 | 34999 ft | 485 kts | 124° |
| 2026-05-08 22:47 | 20.89886 | -71.81393 | 34996 ft | 485 kts | 124° |
| 2026-05-08 22:47 | 20.85879 | -71.75569 | 34998 ft | 485 kts | 124° |
| 2026-05-08 22:48 | 20.81878 | -71.69761 | 34998 ft | 485 kts | 124° |
| 2026-05-08 22:48 | 20.77894 | -71.63982 | 34988 ft | 486 kts | 126° |
| 2026-05-08 22:49 | 20.73880 | -71.58168 | 34999 ft | 486 kts | 126° |
| 2026-05-08 22:49 | 20.67847 | -71.49439 | 34990 ft | 486 kts | 126° |
| 2026-05-08 22:50 | 20.63820 | -71.43618 | 34994 ft | 486 kts | 125° |
| 2026-05-08 22:50 | 20.59824 | -71.37847 | 34991 ft | 486 kts | 126° |
| 2026-05-08 22:51 | 20.55798 | -71.32039 | 34992 ft | 486 kts | 126° |
| 2026-05-08 22:51 | 20.51766 | -71.26228 | 34994 ft | 486 kts | 126° |
| 2026-05-08 22:52 | 20.47760 | -71.20462 | 34987 ft | 486 kts | 125° |
| 2026-05-08 22:52 | 20.43730 | -71.14664 | 34988 ft | 486 kts | 125° |
| 2026-05-08 22:53 | 20.41576 | -71.11871 | 34975 ft | 487 kts | 137° |
| 2026-05-08 22:53 | 20.38949 | -71.09601 | 35009 ft | 487 kts | 141° |
| 2026-05-08 22:53 | 20.33646 | -71.05074 | 34992 ft | 488 kts | 141° |
| 2026-05-08 22:54 | 20.28334 | -71.00621 | 34990 ft | 488 kts | 141° |
| 2026-05-08 22:54 | 20.22970 | -70.96142 | 34987 ft | 488 kts | 141° |
| 2026-05-08 22:55 | 20.17649 | -70.91705 | 34994 ft | 488 kts | 141° |
| 2026-05-08 22:55 | 20.12294 | -70.87242 | 34481 ft | 487 kts | 141° |
| 2026-05-08 22:56 | 20.09632 | -70.85025 | 33956 ft | 486 kts | 141° |
| 2026-05-08 22:56 | 20.06964 | -70.82804 | 33311 ft | 487 kts | 141° |
| 2026-05-08 22:56 | 20.04286 | -70.80576 | 32702 ft | 488 kts | 141° |
| 2026-05-08 22:56 | 20.01609 | -70.78350 | 32115 ft | 488 kts | 140° |
| 2026-05-08 22:57 | 19.98925 | -70.76118 | 31536 ft | 489 kts | 140° |
| 2026-05-08 22:57 | 19.96242 | -70.73889 | 30974 ft | 490 kts | 140° |
| 2026-05-08 22:57 | 19.93586 | -70.71683 | 30425 ft | 490 kts | 140° |
| 2026-05-08 22:57 | 19.90889 | -70.69444 | 29859 ft | 491 kts | 140° |
| 2026-05-08 22:58 | 19.88189 | -70.67203 | 29231 ft | 492 kts | 140° |
| 2026-05-08 22:58 | 19.85479 | -70.64955 | 28604 ft | 493 kts | 140° |
| 2026-05-08 22:58 | 19.82805 | -70.62739 | 28004 ft | 494 kts | 140° |
| 2026-05-08 22:58 | 19.80085 | -70.60484 | 27415 ft | 496 kts | 140° |
| 2026-05-08 22:59 | 19.77359 | -70.58226 | 26823 ft | 497 kts | 140° |
| 2026-05-08 22:59 | 19.74496 | -70.56137 | 26246 ft | 500 kts | 146° |
| 2026-05-08 22:59 | 19.71547 | -70.54156 | 25685 ft | 501 kts | 146° |
| 2026-05-08 22:59 | 19.68612 | -70.52149 | 25114 ft | 501 kts | 145° |
| 2026-05-08 23:00 | 19.65726 | -70.50159 | 24574 ft | 498 kts | 145° |
| 2026-05-08 23:00 | 19.62826 | -70.48153 | 24036 ft | 495 kts | 145° |
| 2026-05-08 23:00 | 19.59937 | -70.46153 | 23498 ft | 491 kts | 145° |
| 2026-05-08 23:00 | 19.57086 | -70.44181 | 22863 ft | 487 kts | 145° |
| 2026-05-08 23:01 | 19.54253 | -70.42222 | 22242 ft | 483 kts | 145° |
| 2026-05-08 23:01 | 19.51482 | -70.40307 | 21647 ft | 479 kts | 144° |
| 2026-05-08 23:01 | 19.48696 | -70.38382 | 21054 ft | 475 kts | 144° |
| 2026-05-08 23:01 | 19.45936 | -70.36475 | 20468 ft | 471 kts | 144° |
| 2026-05-08 23:02 | 19.43203 | -70.34588 | 19897 ft | 467 kts | 144° |
| 2026-05-08 23:02 | 19.40490 | -70.32716 | 19331 ft | 463 kts | 144° |
| 2026-05-08 23:02 | 19.37799 | -70.30861 | 18786 ft | 459 kts | 144° |
| 2026-05-08 23:02 | 19.35133 | -70.29021 | 18235 ft | 455 kts | 144° |
| 2026-05-08 23:03 | 19.32527 | -70.27226 | 17619 ft | 451 kts | 144° |
| 2026-05-08 23:03 | 19.29901 | -70.25417 | 17009 ft | 448 kts | 144° |
| 2026-05-08 23:03 | 19.27286 | -70.23616 | 16410 ft | 444 kts | 144° |
| 2026-05-08 23:03 | 19.24710 | -70.21843 | 15826 ft | 441 kts | 144° |
| 2026-05-08 23:04 | 19.22147 | -70.20079 | 15252 ft | 437 kts | 144° |
| 2026-05-08 23:04 | 19.19637 | -70.18352 | 14698 ft | 433 kts | 144° |
| 2026-05-08 23:04 | 19.17159 | -70.16648 | 14166 ft | 416 kts | 144° |
| 2026-05-08 23:04 | 19.14766 | -70.15003 | 13612 ft | 402 kts | 144° |
| 2026-05-08 23:05 | 19.12570 | -70.13268 | 13013 ft | 387 kts | 135° |
| 2026-05-08 23:05 | 19.10566 | -70.11412 | 12434 ft | 377 kts | 136° |
| 2026-05-08 23:05 | 19.08594 | -70.09629 | 11879 ft | 368 kts | 137° |
| 2026-05-08 23:05 | 19.06692 | -70.07926 | 11404 ft | 357 kts | 137° |
| 2026-05-08 23:06 | 19.04814 | -70.06255 | 10930 ft | 348 kts | 137° |
| 2026-05-08 23:06 | 19.02983 | -70.04630 | 10464 ft | 340 kts | 137° |
| 2026-05-08 23:06 | 19.01185 | -70.03039 | 10005 ft | 332 kts | 137° |
| 2026-05-08 23:06 | 18.99427 | -70.01483 | 9514 ft | 326 kts | 137° |
| 2026-05-08 23:07 | 18.97700 | -69.99955 | 9000 ft | 321 kts | 138° |
| 2026-05-08 23:07 | 18.96017 | -69.98467 | 8512 ft | 315 kts | 138° |
| 2026-05-08 23:07 | 18.94351 | -69.96995 | 8085 ft | 309 kts | 138° |
| 2026-05-08 23:07 | 18.92718 | -69.95551 | 7657 ft | 302 kts | 138° |
| 2026-05-08 23:08 | 18.91113 | -69.94177 | 7317 ft | 293 kts | 144° |
| 2026-05-08 23:08 | 18.89393 | -69.93038 | 6998 ft | 291 kts | 147° |
| 2026-05-08 23:08 | 18.87670 | -69.91905 | 6674 ft | 291 kts | 147° |
| 2026-05-08 23:08 | 18.85953 | -69.90761 | 6346 ft | 291 kts | 147° |
| 2026-05-08 23:09 | 18.84264 | -69.89626 | 6010 ft | 290 kts | 146° |
| 2026-05-08 23:09 | 18.82561 | -69.88475 | 5679 ft | 290 kts | 146° |
| 2026-05-08 23:09 | 18.80861 | -69.87324 | 5339 ft | 290 kts | 146° |
| 2026-05-08 23:09 | 18.79176 | -69.86181 | 4997 ft | 284 kts | 146° |
| 2026-05-08 23:10 | 18.77536 | -69.85069 | 4741 ft | 275 kts | 146° |
| 2026-05-08 23:10 | 18.75955 | -69.83997 | 4444 ft | 265 kts | 145° |
| 2026-05-08 23:10 | 18.74441 | -69.82971 | 4231 ft | 251 kts | 146° |
| 2026-05-08 23:10 | 18.73001 | -69.81995 | 3966 ft | 240 kts | 145° |
| 2026-05-08 23:11 | 18.71635 | -69.81068 | 3740 ft | 229 kts | 145° |
| 2026-05-08 23:11 | 18.70313 | -69.80171 | 3571 ft | 219 kts | 145° |
| 2026-05-08 23:11 | 18.69068 | -69.79328 | 3460 ft | 205 kts | 145° |
| 2026-05-08 23:11 | 18.67920 | -69.78551 | 3268 ft | 193 kts | 144° |
| 2026-05-08 23:12 | 18.66813 | -69.77802 | 3046 ft | 185 kts | 144° |
| 2026-05-08 23:12 | 18.65723 | -69.77062 | 2965 ft | 187 kts | 145° |
| 2026-05-08 23:12 | 18.64625 | -69.76318 | 2963 ft | 188 kts | 145° |
| 2026-05-08 23:12 | 18.63525 | -69.75572 | 2988 ft | 188 kts | 144° |
| 2026-05-08 23:13 | 18.62421 | -69.74826 | 2965 ft | 188 kts | 145° |
| 2026-05-08 23:13 | 18.61331 | -69.74088 | 2968 ft | 188 kts | 145° |
| 2026-05-08 23:13 | 18.60201 | -69.73388 | 2958 ft | 188 kts | 151° |
| 2026-05-08 23:13 | 18.58991 | -69.72837 | 2989 ft | 189 kts | 155° |
| 2026-05-08 23:14 | 18.57750 | -69.72350 | 2954 ft | 191 kts | 158° |
| 2026-05-08 23:14 | 18.56490 | -69.71884 | 2847 ft | 192 kts | 158° |
| 2026-05-08 23:14 | 18.55252 | -69.71427 | 2531 ft | 190 kts | 158° |
| 2026-05-08 23:14 | 18.54021 | -69.70973 | 2194 ft | 182 kts | 158° |
| 2026-05-08 23:15 | 18.52861 | -69.70546 | 1927 ft | 170 kts | 159° |
| 2026-05-08 23:15 | 18.51789 | -69.70169 | 1675 ft | 156 kts | 158° |
| 2026-05-08 23:15 | 18.50781 | -69.69802 | 1407 ft | 150 kts | 158° |
| 2026-05-08 23:15 | 18.49794 | -69.69452 | 1077 ft | 150 kts | 160° |
| 2026-05-08 23:16 | 18.48791 | -69.69076 | 861 ft | 153 kts | 159° |
| 2026-05-08 23:16 | 18.47841 | -69.68728 | 645 ft | 140 kts | 157° |
| 2026-05-08 23:16 | 18.46872 | -69.68348 | 584 ft | 156 kts | 158° |
| 2026-05-08 23:16 | 18.45836 | -69.67966 | 402 ft | 153 kts | 155° |
| 2026-05-08 23:17 | 18.44857 | -69.67592 | 220 ft | 149 kts | 158° |
| 2026-05-08 23:17 | 18.43885 | -69.67233 | 74 ft | 141 kts | 160° |
| 2026-05-08 23:17 | 18.43110 | -69.66943 | 67 ft | 87 kts | 160° |
| 2026-05-08 23:17 | 18.42889 | -69.66845 | 70 ft | 12 kts | 130° |
| 2026-05-08 23:18 | 18.42855 | -69.66849 | 67 ft | 4 kts | 264° |
| 2026-05-08 23:18 | 18.42875 | -69.66865 | 67 ft | 4 kts | 353° |
| 2026-05-08 23:18 | 18.42907 | -69.66873 | 69 ft | 5 kts | 333° |
| 2026-05-08 23:18 | 18.42927 | -69.66921 | 73 ft | 12 kts | 273° |
| 2026-05-08 23:19 | 18.42941 | -69.67055 | 71 ft | 23 kts | 277° |
| 2026-05-08 23:19 | 18.42963 | -69.67233 | 70 ft | 26 kts | 277° |
| 2026-05-08 23:19 | 18.43001 | -69.67397 | 64 ft | 21 kts | 310° |
| 2026-05-08 23:19 | 18.43114 | -69.67458 | 61 ft | 16 kts | 340° |
| 2026-05-08 23:20 | 18.43179 | -69.67482 | 66 ft | 10 kts | 340° |
| 2026-05-08 23:20 | 18.43242 | -69.67516 | 66 ft | 9 kts | 297° |
| 2026-05-08 23:20 | 18.43239 | -69.67551 | 68 ft | 2 kts | 249° |
| 2026-05-08 23:20 | 18.43236 | -69.67558 | 70 ft | 0 kts | 244° |
| 2026-05-08 23:21 | 18.43233 | -69.67565 | 70 ft | 3 kts | 243° |
| 2026-05-08 23:21 | 18.43222 | -69.67587 | 62 ft | 2 kts | 243° |
| 2026-05-08 23:21 | 18.43219 | -69.67593 | 70 ft | 0 kts | 243° |
| 2026-05-08 23:21 | 18.43218 | -69.67596 | 70 ft | 0 kts | 243° |